Time;durP1;ratioP1;P1;durP2;ratioP2;P2;SDS_P1;SDS_P2;PMS_P1;PMS_P2;Temp;Humidity;BMP_temperature;BMP_pressure;BME280_temperature;BME280_humidity;BME280_pressure;Samples;Min_cycle;Max_cycle;Signal;HPM_P1;HPM_P2
2023/12/13 00:01:39;;;;;;;14.65;6.07;;;7.90;99.90;;;;;;4996838;28;20046;-76
2023/12/13 00:04:04;;;;;;;19.20;6.55;;;7.90;99.90;;;;;;4998038;28;20060;-77
2023/12/13 00:06:30;;;;;;;11.93;5.22;;;7.90;99.90;;;;;;4979677;28;20046;-76
2023/12/13 00:08:56;;;;;;;17.70;7.15;;;7.90;99.90;;;;;;4991858;28;20042;-76
2023/12/13 00:11:22;;;;;;;23.45;7.50;;;7.90;99.90;;;;;;4991606;28;20125;-76
2023/12/13 00:13:48;;;;;;;21.30;7.75;;;7.90;99.90;;;;;;4997618;28;20497;-77
2023/12/13 00:16:14;;;;;;;20.67;7.35;;;7.90;99.90;;;;;;4988307;28;20126;-76
2023/12/13 00:18:40;;;;;;;21.00;8.50;;;7.90;99.90;;;;;;4981103;28;20077;-77
2023/12/13 00:21:06;;;;;;;15.70;7.40;;;7.90;99.90;;;;;;4994318;28;20076;-77
2023/12/13 00:23:32;;;;;;;20.73;8.02;;;7.90;99.90;;;;;;4995460;28;20655;-77
2023/12/13 00:25:57;;;;;;;17.35;8.52;;;7.90;99.90;;;;;;4977271;28;20050;-77
2023/12/13 00:28:23;;;;;;;23.30;8.75;;;7.80;99.90;;;;;;5063586;28;20050;-77
2023/12/13 00:30:49;;;;;;;18.70;8.07;;;7.80;99.90;;;;;;4995667;28;20049;-77
2023/12/13 00:33:14;;;;;;;19.00;7.47;;;7.80;99.90;;;;;;4979958;28;20535;-77
2023/12/13 00:35:40;;;;;;;16.02;6.95;;;7.90;99.90;;;;;;4998444;28;20063;-77
2023/12/13 00:38:06;;;;;;;13.68;6.82;;;7.90;99.90;;;;;;4997881;28;20068;-77
2023/12/13 00:40:31;;;;;;;11.18;6.75;;;7.90;99.90;;;;;;5012136;28;20042;-77
2023/12/13 00:42:57;;;;;;;16.35;7.40;;;7.80;99.90;;;;;;4996815;28;20066;-77
2023/12/13 00:45:22;;;;;;;17.33;6.90;;;7.80;99.90;;;;;;4997111;28;20052;-77
2023/12/13 00:47:49;;;;;;;17.63;6.75;;;7.80;99.90;;;;;;4976098;28;20042;-76
2023/12/13 00:50:15;;;;;;;13.32;6.32;;;7.80;99.90;;;;;;4986379;28;20068;-76
2023/12/13 00:52:41;;;;;;;17.67;6.70;;;7.80;99.90;;;;;;4996733;28;20034;-77
2023/12/13 00:55:07;;;;;;;12.57;4.30;;;7.80;99.90;;;;;;4995424;28;20075;-77
2023/12/13 00:57:34;;;;;;;8.85;4.88;;;7.80;99.90;;;;;;5000188;28;20161;-77
2023/12/13 01:00:00;;;;;;;6.63;4.07;;;7.80;99.90;;;;;;4977307;28;20101;-77
2023/12/13 01:02:27;;;;;;;9.32;4.60;;;7.80;99.90;;;;;;4999378;28;20572;-77
2023/12/13 01:04:53;;;;;;;8.15;4.25;;;7.80;99.90;;;;;;4991537;28;20046;-77
2023/12/13 01:07:18;;;;;;;11.18;3.95;;;7.80;99.90;;;;;;4995789;28;20038;-77
2023/12/13 01:09:44;;;;;;;9.23;3.72;;;7.80;99.90;;;;;;5000553;28;20078;-77
2023/12/13 01:12:10;;;;;;;11.73;3.80;;;7.80;99.90;;;;;;4997826;28;20124;-76
2023/12/13 01:14:36;;;;;;;5.43;3.17;;;7.80;99.90;;;;;;4999096;28;20478;-76
2023/12/13 01:17:02;;;;;;;11.02;3.97;;;7.80;99.90;;;;;;4977063;28;20616;-77
2023/12/13 01:19:28;;;;;;;6.15;2.75;;;7.80;99.90;;;;;;4994179;28;20275;-76
2023/12/13 01:21:53;;;;;;;5.97;3.10;;;7.80;99.90;;;;;;4999576;28;20056;-76
2023/12/13 01:24:19;;;;;;;7.80;4.63;;;7.70;99.90;;;;;;4996575;28;20083;-76
2023/12/13 01:26:45;;;;;;;6.95;4.07;;;7.70;99.90;;;;;;4990125;28;20131;-76
2023/12/13 01:29:10;;;;;;;10.55;3.15;;;7.80;99.90;;;;;;4976072;28;20058;-76
2023/12/13 01:31:36;;;;;;;4.80;2.80;;;7.70;99.90;;;;;;4994416;28;20041;-76
2023/12/13 01:34:03;;;;;;;4.47;2.67;;;7.70;99.90;;;;;;4985520;28;20072;-76
2023/12/13 01:36:28;;;;;;;6.53;2.75;;;7.70;99.90;;;;;;4995175;28;20046;-75
2023/12/13 01:38:54;;;;;;;6.07;3.05;;;7.70;99.90;;;;;;4980318;28;20042;-76
2023/12/13 01:41:20;;;;;;;4.80;2.40;;;7.70;99.90;;;;;;4997731;28;20140;-75
2023/12/13 01:43:46;;;;;;;6.40;2.90;;;7.70;99.90;;;;;;4976890;28;20046;-75
2023/12/13 01:46:14;;;;;;;3.88;2.50;;;7.70;99.90;;;;;;5000733;28;20492;-75
2023/12/13 01:48:41;;;;;;;5.53;2.95;;;7.70;99.90;;;;;;4991843;28;20050;-75
2023/12/13 01:51:07;;;;;;;6.57;2.90;;;7.70;99.90;;;;;;4976546;28;20050;-74
2023/12/13 01:53:35;;;;;;;10.15;3.40;;;7.70;99.90;;;;;;5000972;28;20060;-75
2023/12/13 01:56:02;;;;;;;8.23;2.80;;;7.70;99.90;;;;;;5001177;28;20074;-75
2023/12/13 01:58:28;;;;;;;6.70;3.38;;;7.70;99.90;;;;;;4996939;28;20100;-75
2023/12/13 02:00:55;;;;;;;7.55;2.92;;;7.70;99.90;;;;;;4998043;28;20054;-75
2023/12/13 02:03:24;;;;;;;10.90;3.30;;;7.70;99.90;;;;;;4980942;28;20078;-76
2023/12/13 02:05:51;;;;;;;8.13;3.22;;;7.70;99.90;;;;;;4975983;28;20042;-76
2023/12/13 02:08:17;;;;;;;7.20;4.00;;;7.70;99.90;;;;;;4999762;28;20057;-76
2023/12/13 02:10:44;;;;;;;4.60;2.63;;;7.70;99.90;;;;;;4984774;28;20046;-76
2023/12/13 02:13:11;;;;;;;4.13;3.13;;;7.70;99.90;;;;;;4998450;28;20050;-76
2023/12/13 02:15:36;;;;;;;8.18;3.03;;;7.70;99.90;;;;;;4984047;28;20049;-76
2023/12/13 02:18:02;;;;;;;5.25;3.72;;;7.70;99.90;;;;;;4998276;28;20066;-76
2023/12/13 02:20:28;;;;;;;5.20;2.83;;;7.70;99.90;;;;;;4983557;28;20042;-76
2023/12/13 02:22:54;;;;;;;4.30;2.88;;;7.70;99.90;;;;;;5000151;28;20483;-76
2023/12/13 02:25:28;;;;;;;5.93;2.80;;;7.70;99.90;;;;;;5001726;28;20038;-76
2023/12/13 02:27:54;;;;;;;8.40;2.55;;;7.70;99.90;;;;;;4999840;28;20046;-77
2023/12/13 02:30:22;;;;;;;5.40;2.88;;;7.70;99.90;;;;;;4999386;28;20049;-77
2023/12/13 02:32:48;;;;;;;7.15;2.85;;;7.60;99.90;;;;;;4970443;28;20042;-76
2023/12/13 02:35:14;;;;;;;5.32;3.00;;;7.60;99.90;;;;;;4981754;28;20076;-77
2023/12/13 02:37:45;;;;;;;7.70;3.92;;;7.60;99.90;;;;;;4983493;28;20042;-77
2023/12/13 02:40:13;;;;;;;6.18;3.03;;;7.60;99.90;;;;;;4999709;28;20445;-77
2023/12/13 02:42:39;;;;;;;4.88;2.80;;;7.60;99.90;;;;;;4981760;28;20479;-77
2023/12/13 02:45:06;;;;;;;6.60;3.38;;;7.60;99.90;;;;;;5067526;28;20047;-77
2023/12/13 02:47:31;;;;;;;3.55;2.35;;;7.50;99.90;;;;;;4980368;28;20050;-77
2023/12/13 02:49:57;;;;;;;5.72;2.80;;;7.50;99.90;;;;;;4994892;28;20056;-77
2023/12/13 02:52:23;;;;;;;4.90;3.15;;;7.50;99.90;;;;;;4995693;28;20129;-77
2023/12/13 02:54:49;;;;;;;4.68;2.60;;;7.60;99.90;;;;;;5001540;28;20047;-77
2023/12/13 02:57:14;;;;;;;6.22;3.22;;;7.50;99.90;;;;;;4998350;28;20042;-77
2023/12/13 02:59:40;;;;;;;4.10;2.60;;;7.60;99.90;;;;;;4984528;28;20054;-77
2023/12/13 03:02:06;;;;;;;8.52;3.22;;;7.60;99.90;;;;;;4996127;28;20042;-77
2023/12/13 03:04:32;;;;;;;7.50;2.78;;;7.60;99.90;;;;;;4993776;28;20084;-78
2023/12/13 03:06:58;;;;;;;6.25;3.13;;;7.60;99.90;;;;;;5000055;28;20042;-77
2023/12/13 03:09:24;;;;;;;7.88;4.18;;;7.60;99.90;;;;;;4998445;28;20049;-78
2023/12/13 03:11:49;;;;;;;6.97;3.85;;;7.60;99.90;;;;;;4979303;28;20062;-77
2023/12/13 03:14:15;;;;;;;5.80;3.30;;;7.60;99.90;;;;;;4975150;28;20046;-78
2023/12/13 03:16:41;;;;;;;8.05;3.58;;;7.60;99.90;;;;;;4996659;28;20085;-78
2023/12/13 03:19:06;;;;;;;10.63;3.13;;;7.60;99.90;;;;;;4999634;28;20046;-78
2023/12/13 03:21:32;;;;;;;8.25;3.25;;;7.60;99.90;;;;;;4980213;28;20039;-78
2023/12/13 03:23:58;;;;;;;8.88;3.88;;;7.60;99.90;;;;;;4994825;28;20034;-78
2023/12/13 03:26:23;;;;;;;8.38;3.55;;;7.60;99.90;;;;;;4978969;28;20038;-78
2023/12/13 03:28:49;;;;;;;7.10;3.85;;;7.60;99.90;;;;;;4985955;28;20064;-78
2023/12/13 03:31:14;;;;;;;7.20;3.58;;;7.60;99.90;;;;;;5000111;28;20058;-78
2023/12/13 03:33:40;;;;;;;12.27;4.55;;;7.60;99.90;;;;;;4976950;28;20047;-78
2023/12/13 03:36:13;;;;;;;12.27;4.40;;;7.70;99.90;;;;;;4998430;28;20049;-78
2023/12/13 03:38:39;;;;;;;8.23;3.88;;;7.70;99.90;;;;;;4994348;28;20070;-78
2023/12/13 03:41:04;;;;;;;11.55;4.47;;;7.70;99.90;;;;;;4999412;28;20406;-78
2023/12/13 03:43:30;;;;;;;8.20;4.13;;;7.60;99.90;;;;;;4977247;28;20034;-78
2023/12/13 03:45:56;;;;;;;10.35;4.10;;;7.70;99.90;;;;;;4999803;28;20501;-78
2023/12/13 03:48:21;;;;;;;9.90;3.97;;;7.70;99.90;;;;;;4996178;28;20050;-78
2023/12/13 03:50:47;;;;;;;10.20;4.30;;;7.70;99.90;;;;;;4978770;28;20092;-78
2023/12/13 03:53:13;;;;;;;9.68;4.38;;;7.70;99.90;;;;;;4993885;28;20485;-78
2023/12/13 03:55:38;;;;;;;9.98;4.60;;;7.70;99.90;;;;;;4979342;28;20087;-78
2023/12/13 03:58:04;;;;;;;14.80;5.25;;;7.70;99.90;;;;;;4992973;28;20062;-78
2023/12/13 04:00:30;;;;;;;9.80;4.60;;;7.70;99.90;;;;;;4982383;28;20121;-78
2023/12/13 04:02:55;;;;;;;8.35;4.20;;;7.70;99.90;;;;;;4994676;28;20042;-78
2023/12/13 04:05:21;;;;;;;10.07;5.45;;;7.70;99.90;;;;;;4994743;28;20043;-78
2023/12/13 04:07:46;;;;;;;10.00;4.90;;;7.70;99.90;;;;;;4994891;28;20046;-78
2023/12/13 04:10:12;;;;;;;12.82;4.93;;;7.70;99.90;;;;;;4991980;28;20069;-78
2023/12/13 04:12:38;;;;;;;9.55;4.82;;;7.70;99.90;;;;;;5000171;28;20075;-79
2023/12/13 04:15:04;;;;;;;12.55;6.50;;;7.70;99.90;;;;;;5002074;28;20042;-79
2023/12/13 04:17:30;;;;;;;11.68;5.40;;;7.70;99.90;;;;;;4997516;28;20125;-79
2023/12/13 04:19:57;;;;;;;28.60;5.47;;;7.80;99.90;;;;;;4979903;28;20513;-79
2023/12/13 04:22:22;;;;;;;11.45;5.50;;;7.70;99.90;;;;;;4979248;28;20064;-79
2023/12/13 04:24:48;;;;;;;10.38;5.47;;;7.70;99.90;;;;;;4984741;28;20038;-78
2023/12/13 04:27:14;;;;;;;8.25;4.18;;;7.80;99.90;;;;;;4994314;28;20057;-79
2023/12/13 04:29:39;;;;;;;14.65;5.70;;;7.80;99.90;;;;;;4980396;28;20033;-79
2023/12/13 04:32:05;;;;;;;15.90;4.95;;;7.70;99.90;;;;;;5000122;28;20394;-79
2023/12/13 04:34:31;;;;;;;10.82;5.25;;;7.70;99.90;;;;;;4993835;28;20093;-79
2023/12/13 04:36:56;;;;;;;10.00;4.45;;;7.60;99.90;;;;;;4981295;28;20085;-79
2023/12/13 04:39:22;;;;;;;15.10;5.05;;;7.60;99.90;;;;;;4993919;28;20046;-79
2023/12/13 04:41:48;;;;;;;13.10;5.90;;;7.60;99.90;;;;;;4996701;28;20049;-79
2023/12/13 04:44:13;;;;;;;15.57;7.03;;;7.70;99.90;;;;;;4998536;28;20054;-79
2023/12/13 04:46:40;;;;;;;10.77;5.57;;;7.60;99.90;;;;;;4997129;28;20104;-79
2023/12/13 04:49:06;;;;;;;10.45;5.28;;;7.60;99.90;;;;;;4999391;28;20042;-79
2023/12/13 04:51:31;;;;;;;12.15;6.07;;;7.60;99.90;;;;;;4994070;28;20043;-79
2023/12/13 04:53:58;;;;;;;9.73;5.07;;;7.50;99.90;;;;;;4982470;28;20038;-79
2023/12/13 04:56:24;;;;;;;17.00;5.70;;;7.50;99.90;;;;;;4990422;28;20054;-79
2023/12/13 04:58:50;;;;;;;14.50;6.38;;;7.50;99.90;;;;;;5000401;28;20056;-79
2023/12/13 05:01:16;;;;;;;11.65;5.75;;;7.50;99.90;;;;;;4993746;28;20042;-79
2023/12/13 05:03:42;;;;;;;12.48;5.38;;;7.60;99.90;;;;;;4992814;28;20034;-79
2023/12/13 05:06:08;;;;;;;16.88;6.13;;;7.60;99.90;;;;;;4998858;28;20139;-79
2023/12/13 05:08:33;;;;;;;11.60;5.72;;;7.60;99.90;;;;;;4997891;28;20105;-79
2023/12/13 05:11:00;;;;;;;11.57;5.90;;;7.50;99.90;;;;;;4977963;28;20054;-79
2023/12/13 05:13:26;;;;;;;14.25;6.90;;;7.50;99.90;;;;;;4999366;28;20114;-79
2023/12/13 05:15:52;;;;;;;17.08;7.38;;;7.50;99.90;;;;;;4997393;28;20517;-78
2023/12/13 05:18:18;;;;;;;10.13;5.93;;;7.40;99.90;;;;;;4980598;28;20121;-79
2023/12/13 05:20:44;;;;;;;12.38;4.97;;;7.50;99.90;;;;;;4997251;28;20211;-78
2023/12/13 05:23:10;;;;;;;20.73;6.22;;;7.40;99.90;;;;;;4981021;28;20050;-79
2023/12/13 05:25:37;;;;;;;16.25;6.18;;;7.50;99.90;;;;;;4996123;28;20116;-78
2023/12/13 05:28:04;;;;;;;10.93;6.50;;;7.50;99.90;;;;;;4981205;28;20049;-78
2023/12/13 05:30:29;;;;;;;10.70;5.05;;;7.50;99.90;;;;;;4996505;28;20253;-78
2023/12/13 05:32:56;;;;;;;12.68;5.88;;;7.50;99.90;;;;;;4980599;28;20097;-79
2023/12/13 05:35:21;;;;;;;10.80;5.50;;;7.50;99.90;;;;;;4997935;28;20091;-78
2023/12/13 05:37:47;;;;;;;7.90;5.15;;;7.50;99.90;;;;;;5013577;28;20138;-79
2023/12/13 05:40:13;;;;;;;9.27;5.85;;;7.50;99.90;;;;;;5004595;28;20042;-79
2023/12/13 05:42:39;;;;;;;15.27;5.95;;;7.50;99.90;;;;;;4998840;28;20357;-79
2023/12/13 05:45:05;;;;;;;17.38;5.72;;;7.60;99.90;;;;;;5000217;28;20077;-79
2023/12/13 05:47:32;;;;;;;13.75;5.57;;;7.60;99.90;;;;;;4981990;28;20042;-79
2023/12/13 05:49:57;;;;;;;15.15;6.63;;;7.60;99.90;;;;;;4984515;28;20049;-79
2023/12/13 05:52:23;;;;;;;16.10;6.10;;;7.60;99.90;;;;;;4996975;28;20046;-79
2023/12/13 05:54:49;;;;;;;11.50;5.28;;;7.60;99.90;;;;;;5000958;28;20069;-79
2023/12/13 05:57:15;;;;;;;10.27;5.15;;;7.60;99.90;;;;;;4997309;28;20113;-79
2023/12/13 05:59:41;;;;;;;15.05;5.47;;;7.60;99.90;;;;;;5006349;28;20038;-79
2023/12/13 06:02:06;;;;;;;9.63;4.93;;;7.60;99.90;;;;;;4980157;28;20494;-79
2023/12/13 06:04:32;;;;;;;11.80;5.45;;;7.60;99.90;;;;;;4993364;28;20031;-79
2023/12/13 06:06:58;;;;;;;12.52;5.40;;;7.60;99.90;;;;;;5001646;28;20073;-79
2023/12/13 06:09:23;;;;;;;10.85;5.28;;;7.60;99.90;;;;;;4999348;28;20045;-79
2023/12/13 06:11:49;;;;;;;11.88;4.55;;;7.70;99.90;;;;;;4998098;28;20077;-79
2023/12/13 06:14:15;;;;;;;11.70;5.97;;;7.70;99.90;;;;;;5000474;28;20574;-79
2023/12/13 06:16:40;;;;;;;14.35;6.55;;;7.60;99.90;;;;;;5009944;28;20125;-79
2023/12/13 06:19:06;;;;;;;15.32;6.35;;;7.60;99.90;;;;;;4982003;28;20046;-79
2023/12/13 06:21:33;;;;;;;13.55;5.72;;;7.70;99.90;;;;;;4998564;28;20043;-79
2023/12/13 06:24:00;;;;;;;12.55;4.72;;;7.60;99.90;;;;;;4981717;28;20045;-79
2023/12/13 06:26:27;;;;;;;12.98;5.20;;;7.60;99.90;;;;;;4992199;28;20615;-79
2023/12/13 06:28:53;;;;;;;12.63;5.78;;;7.60;99.90;;;;;;4983382;28;20042;-79
2023/12/13 06:31:18;;;;;;;11.98;5.47;;;7.60;99.90;;;;;;5003859;28;20046;-79
2023/12/13 06:33:44;;;;;;;13.70;5.05;;;7.70;99.90;;;;;;4981199;28;20080;-78
2023/12/13 06:36:10;;;;;;;15.07;6.20;;;7.70;99.90;;;;;;4997145;28;20048;-79
2023/12/13 06:38:35;;;;;;;9.57;4.68;;;7.60;99.90;;;;;;4999964;28;20105;-80
2023/12/13 06:41:01;;;;;;;13.75;5.20;;;7.60;99.90;;;;;;4984702;28;20067;-79
2023/12/13 06:43:27;;;;;;;7.93;4.70;;;7.70;99.90;;;;;;5004911;28;20136;-78
2023/12/13 06:45:53;;;;;;;12.77;6.55;;;7.60;99.90;;;;;;5006283;28;20045;-78
2023/12/13 06:48:19;;;;;;;13.40;6.15;;;7.70;99.90;;;;;;4985967;28;20054;-78
2023/12/13 06:50:45;;;;;;;10.88;5.57;;;7.70;99.90;;;;;;5009856;28;20115;-78
2023/12/13 06:53:11;;;;;;;12.57;5.78;;;7.70;99.90;;;;;;4986438;28;20042;-78
2023/12/13 06:55:36;;;;;;;8.52;4.97;;;7.70;99.90;;;;;;4996662;28;20034;-78
2023/12/13 06:58:02;;;;;;;12.93;5.85;;;7.70;99.90;;;;;;4995350;28;20089;-78
2023/12/13 07:00:28;;;;;;;9.13;4.72;;;7.70;99.90;;;;;;4990215;28;20131;-78
2023/12/13 07:02:53;;;;;;;12.07;5.80;;;7.70;99.90;;;;;;5005195;28;20038;-78
2023/12/13 07:05:20;;;;;;;14.90;5.85;;;7.70;99.90;;;;;;4982043;28;20109;-78
2023/12/13 07:07:47;;;;;;;12.20;5.28;;;7.70;99.90;;;;;;5003964;28;20105;-78
2023/12/13 07:10:13;;;;;;;11.88;5.03;;;7.70;99.90;;;;;;4998605;28;20114;-79
2023/12/13 07:12:40;;;;;;;10.40;5.63;;;7.70;99.90;;;;;;5001222;28;20047;-79
2023/12/13 07:15:07;;;;;;;14.38;5.10;;;7.70;99.90;;;;;;4984082;28;20438;-78
2023/12/13 07:17:33;;;;;;;13.15;6.15;;;7.70;99.90;;;;;;4981318;28;20045;-79
2023/12/13 07:19:59;;;;;;;12.00;5.30;;;7.70;99.90;;;;;;4981937;28;20078;-78
2023/12/13 07:22:25;;;;;;;10.23;4.63;;;7.70;99.90;;;;;;5005903;28;20085;-78
2023/12/13 07:24:50;;;;;;;10.00;5.20;;;7.70;99.90;;;;;;4999157;28;20110;-78
2023/12/13 07:27:16;;;;;;;10.57;5.80;;;7.70;99.90;;;;;;4998538;28;20054;-79
2023/12/13 07:29:42;;;;;;;20.95;5.57;;;7.60;99.90;;;;;;5028346;28;20052;-79
2023/12/13 07:32:09;;;;;;;15.98;5.53;;;7.70;99.90;;;;;;4982632;28;20054;-78
2023/12/13 07:34:36;;;;;;;12.18;6.15;;;7.70;99.90;;;;;;5065029;28;20054;-79
2023/12/13 07:37:02;;;;;;;10.50;5.75;;;7.60;99.90;;;;;;4999200;28;20057;-79
2023/12/13 07:39:31;;;;;;;13.30;6.18;;;7.70;99.90;;;;;;4981378;28;20074;-79
2023/12/13 07:41:57;;;;;;;16.42;6.07;;;7.70;99.90;;;;;;4982576;28;20126;-79
2023/12/13 07:44:23;;;;;;;14.30;6.90;;;7.70;99.90;;;;;;4997696;28;20069;-79
2023/12/13 07:46:48;;;;;;;13.00;6.03;;;7.60;99.90;;;;;;4981772;28;20042;-79
2023/12/13 07:49:14;;;;;;;13.73;6.03;;;7.70;99.90;;;;;;4998714;28;20089;-79
2023/12/13 07:51:40;;;;;;;12.30;5.70;;;7.70;99.90;;;;;;4997070;28;20058;-79
2023/12/13 07:54:05;;;;;;;11.27;5.45;;;7.60;99.90;;;;;;4998031;28;20045;-79
2023/12/13 07:56:31;;;;;;;11.63;5.10;;;7.70;99.90;;;;;;4987161;28;20078;-79
2023/12/13 07:58:57;;;;;;;16.90;5.97;;;7.70;99.90;;;;;;4998088;28;20050;-79
2023/12/13 08:01:22;;;;;;;15.18;6.75;;;7.70;99.90;;;;;;4982398;28;20043;-79
2023/12/13 08:03:49;;;;;;;14.77;5.38;;;7.70;99.90;;;;;;4981547;28;20534;-79
2023/12/13 08:06:18;;;;;;;12.35;5.70;;;7.70;99.90;;;;;;5064738;28;20328;-79
2023/12/13 08:08:44;;;;;;;15.18;6.15;;;7.70;99.90;;;;;;4998203;28;20077;-79
2023/12/13 08:11:11;;;;;;;12.30;6.43;;;7.70;99.90;;;;;;4983705;28;20046;-79
2023/12/13 08:13:37;;;;;;;16.73;6.10;;;7.80;99.90;;;;;;4995363;28;20058;-80
2023/12/13 08:16:03;;;;;;;15.25;5.60;;;7.80;99.90;;;;;;4994347;28;20049;-80
2023/12/13 08:18:28;;;;;;;14.52;6.22;;;7.80;99.90;;;;;;4997332;28;20045;-80
2023/12/13 08:20:54;;;;;;;16.83;6.30;;;7.80;99.90;;;;;;5003796;28;20038;-80
2023/12/13 08:23:19;;;;;;;13.35;5.78;;;7.80;99.90;;;;;;4981653;28;20043;-80
2023/12/13 08:25:45;;;;;;;15.13;5.63;;;7.80;99.90;;;;;;5003796;28;20051;-80
2023/12/13 08:28:11;;;;;;;13.40;5.80;;;7.80;99.90;;;;;;5005267;28;20046;-80
2023/12/13 08:30:36;;;;;;;13.45;5.28;;;7.80;99.90;;;;;;4996712;28;20042;-80
2023/12/13 08:33:02;;;;;;;12.82;5.32;;;7.80;99.90;;;;;;4996117;28;20062;-80
2023/12/13 08:35:28;;;;;;;16.42;5.13;;;7.80;99.90;;;;;;4982542;28;20057;-80
2023/12/13 08:37:54;;;;;;;12.93;6.28;;;7.80;99.90;;;;;;4978275;28;20030;-81
2023/12/13 08:40:20;;;;;;;13.00;6.13;;;7.80;99.90;;;;;;4998693;28;20053;-80
2023/12/13 08:42:46;;;;;;;17.02;6.40;;;7.80;99.90;;;;;;5007171;28;20128;-80
2023/12/13 08:45:12;;;;;;;13.40;6.13;;;7.80;99.90;;;;;;4998653;28;20542;-80
2023/12/13 08:47:39;;;;;;;10.13;5.85;;;7.80;99.90;;;;;;4994753;28;20062;-81
2023/12/13 08:50:05;;;;;;;12.57;6.15;;;7.80;99.90;;;;;;4995201;28;20675;-80
2023/12/13 08:52:31;;;;;;;10.27;4.80;;;7.80;99.90;;;;;;4997927;28;20057;-80
2023/12/13 08:54:57;;;;;;;9.80;5.45;;;7.90;99.90;;;;;;4991588;28;20102;-80
2023/12/13 08:57:23;;;;;;;11.85;5.75;;;7.80;99.90;;;;;;4994063;28;20054;-80
2023/12/13 08:59:49;;;;;;;21.05;6.75;;;7.90;99.90;;;;;;4992868;28;20042;-81
2023/12/13 09:02:15;;;;;;;15.35;6.45;;;7.90;99.90;;;;;;4994865;28;20065;-80
2023/12/13 09:04:40;;;;;;;18.10;5.97;;;7.90;99.90;;;;;;4995808;28;20050;-79
2023/12/13 09:07:06;;;;;;;10.90;5.22;;;7.90;99.90;;;;;;4997554;28;20133;-79
2023/12/13 09:09:32;;;;;;;14.38;6.15;;;7.90;99.90;;;;;;4982723;28;20047;-79
2023/12/13 09:11:58;;;;;;;9.32;4.10;;;7.90;99.90;;;;;;5001150;28;20529;-79
2023/12/13 09:14:25;;;;;;;14.20;5.22;;;8.00;99.90;;;;;;5000931;28;20072;-79
2023/12/13 09:16:51;;;;;;;13.85;5.72;;;8.00;99.90;;;;;;4999578;28;20092;-79
2023/12/13 09:19:17;;;;;;;14.73;5.50;;;8.00;99.90;;;;;;5001134;28;20042;-79
2023/12/13 09:21:42;;;;;;;17.52;6.25;;;8.00;99.90;;;;;;4983638;28;20058;-79
2023/12/13 09:24:08;;;;;;;11.35;4.90;;;8.00;99.90;;;;;;5001490;28;20046;-79
2023/12/13 09:26:37;;;;;;;13.68;5.45;;;8.00;99.90;;;;;;4999451;28;20054;-79
2023/12/13 09:29:04;;;;;;;13.57;5.65;;;8.10;99.90;;;;;;5000564;28;20073;-80
2023/12/13 09:31:30;;;;;;;11.20;5.00;;;8.10;99.90;;;;;;5000533;28;20070;-79
2023/12/13 09:33:57;;;;;;;17.38;6.20;;;8.10;99.90;;;;;;5029646;28;20044;-80
2023/12/13 09:36:23;;;;;;;11.73;4.93;;;8.10;99.90;;;;;;5006620;28;20134;-79
2023/12/13 09:38:48;;;;;;;15.18;6.38;;;8.10;99.90;;;;;;4998999;28;20125;-79
2023/12/13 09:41:25;;;;;;;11.65;6.47;;;8.10;99.90;;;;;;4984538;28;20047;-79
2023/12/13 09:43:53;;;;;;;13.75;5.70;;;8.10;99.90;;;;;;4987283;28;20042;-79
2023/12/13 09:46:21;;;;;;;11.30;5.78;;;8.20;99.90;;;;;;5016154;28;20564;-80
2023/12/13 09:48:47;;;;;;;11.80;5.80;;;8.20;99.90;;;;;;5000184;28;20045;-79
2023/12/13 09:51:14;;;;;;;11.30;5.70;;;8.20;99.90;;;;;;4998955;28;20133;-79
2023/12/13 09:53:43;;;;;;;14.25;6.07;;;8.20;99.90;;;;;;5000128;28;20509;-79
2023/12/13 09:56:09;;;;;;;14.57;6.40;;;8.20;99.90;;;;;;4983233;28;20502;-80
2023/12/13 09:58:38;;;;;;;14.38;6.10;;;8.20;99.90;;;;;;5031029;28;20034;-79
2023/12/13 10:01:12;;;;;;;19.38;6.55;;;8.20;99.90;;;;;;4999241;28;20050;-79
2023/12/13 10:03:39;;;;;;;13.48;5.30;;;8.20;99.90;;;;;;4999759;28;20046;-80
2023/12/13 10:06:07;;;;;;;14.05;5.68;;;8.30;99.90;;;;;;5000442;28;20106;-80
2023/12/13 10:08:33;;;;;;;17.80;7.45;;;8.30;99.90;;;;;;4999016;28;20065;-80
2023/12/13 10:10:59;;;;;;;15.18;6.82;;;8.30;99.90;;;;;;5068344;28;20066;-79
2023/12/13 10:13:26;;;;;;;16.55;6.28;;;8.30;99.90;;;;;;5018760;28;20047;-80
2023/12/13 10:15:52;;;;;;;13.13;6.50;;;8.30;99.90;;;;;;5026947;28;20106;-79
2023/12/13 10:18:18;;;;;;;15.63;5.65;;;8.30;99.90;;;;;;4999465;28;20046;-80
2023/12/13 10:20:47;;;;;;;13.48;6.20;;;8.30;99.90;;;;;;4982577;28;20054;-79
2023/12/13 10:23:13;;;;;;;16.08;6.47;;;8.30;99.90;;;;;;4999851;28;20046;-79
2023/12/13 10:25:39;;;;;;;15.63;6.38;;;8.30;99.90;;;;;;5005347;28;20103;-79
2023/12/13 10:28:05;;;;;;;15.75;6.97;;;8.40;99.90;;;;;;4983953;28;20050;-79
2023/12/13 10:30:32;;;;;;;12.98;6.15;;;8.40;99.90;;;;;;4998471;28;20533;-79
2023/12/13 10:32:59;;;;;;;21.80;6.70;;;8.40;99.90;;;;;;4999571;28;20065;-79
2023/12/13 10:35:25;;;;;;;16.80;7.45;;;8.40;99.90;;;;;;4999179;28;20103;-79
2023/12/13 10:37:56;;;;;;;16.65;6.47;;;8.50;99.90;;;;;;5007495;28;20046;-79
2023/12/13 10:40:22;;;;;;;11.70;5.35;;;8.50;99.90;;;;;;5000037;28;20054;-79
2023/12/13 10:42:51;;;;;;;16.30;7.13;;;8.50;99.90;;;;;;4998530;28;20050;-79
2023/12/13 10:45:19;;;;;;;15.98;5.80;;;8.50;99.90;;;;;;4999729;28;20046;-79
2023/12/13 10:47:47;;;;;;;18.80;6.78;;;8.50;99.90;;;;;;4998267;28;20129;-80
2023/12/13 10:50:14;;;;;;;17.13;6.63;;;8.60;99.90;;;;;;5006597;28;20053;-79
2023/12/13 10:52:42;;;;;;;12.65;6.75;;;8.60;99.90;;;;;;4998727;28;20101;-80
2023/12/13 10:55:08;;;;;;;14.32;5.88;;;8.60;99.90;;;;;;4998806;28;20057;-79
2023/12/13 10:57:37;;;;;;;11.07;5.72;;;8.60;99.90;;;;;;4999691;28;20050;-79
2023/12/13 11:00:05;;;;;;;16.17;6.53;;;8.60;99.90;;;;;;4997806;28;20101;-79
2023/12/13 11:02:41;;;;;;;13.32;6.78;;;8.70;99.90;;;;;;5006321;28;20046;-80
2023/12/13 11:05:07;;;;;;;14.55;5.97;;;8.70;99.90;;;;;;4981597;28;20439;-80
2023/12/13 11:07:45;;;;;;;16.05;5.97;;;8.70;99.90;;;;;;4983251;28;20573;-79
2023/12/13 11:10:15;;;;;;;14.55;7.20;;;8.70;99.90;;;;;;4999689;28;20069;-80
2023/12/13 11:12:50;;;;;;;21.27;7.45;;;8.70;99.90;;;;;;4997572;28;20454;-79
2023/12/13 11:15:18;;;;;;;16.70;7.00;;;8.70;99.90;;;;;;4999630;28;20050;-79
2023/12/13 11:17:46;;;;;;;12.63;6.05;;;8.70;99.90;;;;;;4997543;28;20058;-79
2023/12/13 11:20:13;;;;;;;17.48;6.68;;;8.80;99.90;;;;;;4983237;28;20066;-79
2023/12/13 11:22:43;;;;;;;15.52;6.30;;;8.70;99.90;;;;;;4998751;28;20046;-79
2023/12/13 11:25:10;;;;;;;15.20;6.88;;;8.80;99.90;;;;;;4998318;28;20050;-79
2023/12/13 11:27:36;;;;;;;13.73;6.15;;;8.80;99.90;;;;;;5003834;28;20096;-79
2023/12/13 11:30:13;;;;;;;22.27;6.90;;;8.80;99.90;;;;;;4997369;28;20046;-80
2023/12/13 11:32:45;;;;;;;15.20;6.00;;;8.80;99.90;;;;;;5065529;28;20107;-79
2023/12/13 11:35:16;;;;;;;12.43;6.65;;;8.80;99.90;;;;;;4997730;28;20549;-80
2023/12/13 11:37:53;;;;;;;12.25;6.35;;;8.80;99.90;;;;;;4998795;28;20057;-79
2023/12/13 11:40:19;;;;;;;16.63;7.57;;;8.80;99.90;;;;;;5056542;28;20494;-79
2023/12/13 11:42:50;;;;;;;15.85;6.50;;;8.80;99.90;;;;;;4981180;28;20535;-79
2023/12/13 11:45:19;;;;;;;13.93;6.28;;;8.80;99.90;;;;;;4999008;28;20119;-80
2023/12/13 11:47:47;;;;;;;16.70;7.88;;;8.80;99.90;;;;;;4997349;28;20050;-79
2023/12/13 11:50:13;;;;;;;19.30;6.43;;;8.80;99.90;;;;;;5005776;28;20085;-79
2023/12/13 11:52:39;;;;;;;13.82;6.18;;;8.80;99.90;;;;;;4998514;28;20079;-79
2023/12/13 11:55:08;;;;;;;39.97;15.68;;;8.80;99.90;;;;;;4997304;28;20114;-79
2023/12/13 11:57:34;;;;;;;18.80;9.07;;;8.90;99.90;;;;;;4998647;28;20042;-79
2023/12/13 12:00:00;;;;;;;15.38;6.95;;;8.90;99.90;;;;;;4996995;28;20436;-79
2023/12/13 12:02:25;;;;;;;17.65;6.88;;;8.90;99.90;;;;;;5005292;28;20052;-79
2023/12/13 12:04:51;;;;;;;20.75;7.95;;;8.90;99.90;;;;;;4997555;28;20046;-79
2023/12/13 12:07:18;;;;;;;18.30;6.80;;;8.90;99.90;;;;;;4999990;28;20125;-72
2023/12/13 12:09:52;;;;;;;12.13;6.60;;;9.00;99.90;;;;;;4997110;28;20143;-72
2023/12/13 12:12:19;;;;;;;19.10;7.10;;;9.00;99.90;;;;;;5013299;28;20046;-72
2023/12/13 12:14:47;;;;;;;13.52;7.80;;;9.00;99.90;;;;;;5008862;28;20049;-72
2023/12/13 12:17:15;;;;;;;17.25;7.00;;;9.00;99.90;;;;;;4999484;28;20498;-72
2023/12/13 12:19:40;;;;;;;18.77;6.65;;;9.00;99.90;;;;;;4999855;28;20117;-72
2023/12/13 12:22:06;;;;;;;17.00;6.80;;;9.00;99.90;;;;;;4980727;28;20084;-72
2023/12/13 12:24:36;;;;;;;12.90;7.22;;;9.10;99.90;;;;;;5004012;28;20038;-72
2023/12/13 12:27:10;;;;;;;17.08;7.70;;;9.00;99.90;;;;;;4996874;28;20043;-72
2023/12/13 12:29:36;;;;;;;22.00;7.38;;;9.10;99.90;;;;;;5000612;28;20414;-72
2023/12/13 12:32:08;;;;;;;17.98;7.60;;;9.10;99.90;;;;;;5023094;28;20048;-79
2023/12/13 12:34:41;;;;;;;20.25;9.77;;;9.10;99.90;;;;;;5061352;28;20038;-79
2023/12/13 12:37:06;;;;;;;24.63;9.20;;;9.20;99.90;;;;;;4981832;28;20865;-79
2023/12/13 12:39:33;;;;;;;24.20;11.43;;;9.20;99.90;;;;;;4964881;28;20107;-79
2023/12/13 12:42:00;;;;;;;19.63;8.90;;;9.20;99.90;;;;;;4982677;28;20049;-79
2023/12/13 12:44:26;;;;;;;23.05;9.18;;;9.20;99.90;;;;;;5018987;28;20049;-79
2023/12/13 12:46:51;;;;;;;21.05;7.93;;;9.20;99.90;;;;;;4980889;28;20047;-79